sensor_id;sensor_type;location;lat;lon;timestamp;pressure;altitude;pressure_sealevel;temperature;humidity
33155;BME280;19511;42.682;23.332;2022-12-07T00:02:20;95188.44;;;5.09;100.00
33155;BME280;19511;42.682;23.332;2022-12-07T00:04:48;95176.59;;;5.01;100.00
33155;BME280;19511;42.682;23.332;2022-12-07T00:07:14;95092.78;;;4.32;100.00
33155;BME280;19511;42.682;23.332;2022-12-07T00:09:39;95186.13;;;5.11;100.00
33155;BME280;19511;42.682;23.332;2022-12-07T00:12:07;95086.63;;;4.42;100.00
33155;BME280;19511;42.682;23.332;2022-12-07T00:14:33;95177.31;;;4.94;100.00
33155;BME280;19511;42.682;23.332;2022-12-07T00:16:58;95114.03;;;4.42;100.00
33155;BME280;19511;42.682;23.332;2022-12-07T00:19:24;95178.88;;;4.95;100.00
33155;BME280;19511;42.682;23.332;2022-12-07T00:21:49;95165.47;;;4.86;100.00
33155;BME280;19511;42.682;23.332;2022-12-07T00:24:18;95162.28;;;4.84;100.00
33155;BME280;19511;42.682;23.332;2022-12-07T00:26:43;95181.81;;;4.79;100.00
33155;BME280;19511;42.682;23.332;2022-12-07T00:29:19;95186.13;;;4.80;100.00
33155;BME280;19511;42.682;23.332;2022-12-07T00:31:45;95171.56;;;4.76;100.00
33155;BME280;19511;42.682;23.332;2022-12-07T00:34:20;95118.50;;;4.27;100.00
33155;BME280;19511;42.682;23.332;2022-12-07T00:36:46;95187.94;;;4.69;100.00
33155;BME280;19511;42.682;23.332;2022-12-07T00:39:12;95181.47;;;4.84;100.00
33155;BME280;19511;42.682;23.332;2022-12-07T00:41:37;95181.09;;;4.86;100.00
33155;BME280;19511;42.682;23.332;2022-12-07T00:44:07;95182.69;;;4.87;100.00
33155;BME280;19511;42.682;23.332;2022-12-07T00:46:33;95174.22;;;4.99;100.00
33155;BME280;19511;42.682;23.332;2022-12-07T00:48:58;95097.91;;;4.71;100.00
33155;BME280;19511;42.682;23.332;2022-12-07T00:51:24;95166.63;;;5.19;100.00
33155;BME280;19511;42.682;23.332;2022-12-07T00:53:51;95175.53;;;5.13;100.00
33155;BME280;19511;42.682;23.332;2022-12-07T00:56:21;95180.81;;;5.29;100.00
33155;BME280;19511;42.682;23.332;2022-12-07T00:58:54;95173.31;;;5.22;100.00
33155;BME280;19511;42.682;23.332;2022-12-07T01:01:21;95169.03;;;5.25;100.00
33155;BME280;19511;42.682;23.332;2022-12-07T01:03:46;95152.44;;;5.14;100.00
33155;BME280;19511;42.682;23.332;2022-12-07T01:06:17;95164.84;;;5.00;100.00
33155;BME280;19511;42.682;23.332;2022-12-07T01:08:43;95084.63;;;4.39;100.00
33155;BME280;19511;42.682;23.332;2022-12-07T01:11:12;95167.78;;;4.84;100.00
33155;BME280;19511;42.682;23.332;2022-12-07T01:13:38;95167.72;;;4.81;100.00
33155;BME280;19511;42.682;23.332;2022-12-07T01:16:05;95163.50;;;4.87;100.00
33155;BME280;19511;42.682;23.332;2022-12-07T01:18:34;95071.59;;;4.29;100.00
33155;BME280;19511;42.682;23.332;2022-12-07T01:21:11;95168.66;;;4.92;100.00
33155;BME280;19511;42.682;23.332;2022-12-07T01:23:37;95157.81;;;5.03;100.00
33155;BME280;19511;42.682;23.332;2022-12-07T01:26:06;95116.56;;;4.92;100.00
33155;BME280;19511;42.682;23.332;2022-12-07T01:28:32;95068.88;;;4.63;100.00
33155;BME280;19511;42.682;23.332;2022-12-07T01:31:03;95140.72;;;5.13;100.00
33155;BME280;19511;42.682;23.332;2022-12-07T01:33:32;95153.03;;;4.96;100.00
33155;BME280;19511;42.682;23.332;2022-12-07T01:36:13;95107.13;;;4.55;100.00
33155;BME280;19511;42.682;23.332;2022-12-07T01:38:39;95063.28;;;4.21;100.00
33155;BME280;19511;42.682;23.332;2022-12-07T01:41:05;95062.88;;;4.19;100.00
33155;BME280;19511;42.682;23.332;2022-12-07T01:43:32;95140.97;;;4.70;100.00
33155;BME280;19511;42.682;23.332;2022-12-07T01:46:01;95154.75;;;4.74;100.00
33155;BME280;19511;42.682;23.332;2022-12-07T01:48:31;95153.94;;;4.73;100.00
33155;BME280;19511;42.682;23.332;2022-12-07T01:51:01;95081.50;;;4.37;100.00
33155;BME280;19511;42.682;23.332;2022-12-07T01:53:30;95129.19;;;4.66;100.00
33155;BME280;19511;42.682;23.332;2022-12-07T01:55:58;95153.56;;;4.75;100.00
33155;BME280;19511;42.682;23.332;2022-12-07T01:58:24;95136.34;;;4.74;100.00
33155;BME280;19511;42.682;23.332;2022-12-07T02:00:50;95043.50;;;4.05;100.00
33155;BME280;19511;42.682;23.332;2022-12-07T02:03:22;95127.66;;;4.69;100.00
33155;BME280;19511;42.682;23.332;2022-12-07T02:05:50;95109.75;;;4.75;100.00
33155;BME280;19511;42.682;23.332;2022-12-07T02:08:16;95134.94;;;4.88;100.00
33155;BME280;19511;42.682;23.332;2022-12-07T02:10:42;95046.53;;;4.27;100.00
33155;BME280;19511;42.682;23.332;2022-12-07T02:13:18;95135.66;;;4.85;100.00
33155;BME280;19511;42.682;23.332;2022-12-07T02:16:00;95138.94;;;4.94;100.00
33155;BME280;19511;42.682;23.332;2022-12-07T02:22:00;95142.06;;;4.96;100.00
33155;BME280;19511;42.682;23.332;2022-12-07T02:27:47;95144.06;;;4.99;100.00
33155;BME280;19511;42.682;23.332;2022-12-07T02:30:20;95127.25;;;5.01;100.00
33155;BME280;19511;42.682;23.332;2022-12-07T02:33:32;95115.47;;;4.97;100.00
33155;BME280;19511;42.682;23.332;2022-12-07T02:38:33;95116.19;;;4.94;100.00
33155;BME280;19511;42.682;23.332;2022-12-07T02:41:07;95115.63;;;4.77;100.00
33155;BME280;19511;42.682;23.332;2022-12-07T02:43:45;95114.75;;;4.69;100.00
33155;BME280;19511;42.682;23.332;2022-12-07T02:46:17;95065.56;;;4.46;100.00
33155;BME280;19511;42.682;23.332;2022-12-07T02:48:47;95121.00;;;5.00;100.00
33155;BME280;19511;42.682;23.332;2022-12-07T02:51:12;95125.28;;;5.01;100.00
33155;BME280;19511;42.682;23.332;2022-12-07T02:53:43;95027.22;;;4.46;100.00
33155;BME280;19511;42.682;23.332;2022-12-07T03:07:06;95051.16;;;4.22;100.00
33155;BME280;19511;42.682;23.332;2022-12-07T03:09:43;95038.88;;;4.09;100.00
33155;BME280;19511;42.682;23.332;2022-12-07T03:12:19;95095.50;;;4.66;100.00
33155;BME280;19511;42.682;23.332;2022-12-07T03:14:52;95098.59;;;4.61;100.00
33155;BME280;19511;42.682;23.332;2022-12-07T03:17:25;95094.44;;;4.40;100.00
33155;BME280;19511;42.682;23.332;2022-12-07T03:19:56;95096.19;;;4.55;100.00
33155;BME280;19511;42.682;23.332;2022-12-07T03:22:23;95102.75;;;4.47;100.00
33155;BME280;19511;42.682;23.332;2022-12-07T03:25:01;95071.53;;;4.25;100.00
33155;BME280;19511;42.682;23.332;2022-12-07T03:27:33;95103.06;;;4.42;100.00
33155;BME280;19511;42.682;23.332;2022-12-07T03:30:02;95105.28;;;4.33;100.00
33155;BME280;19511;42.682;23.332;2022-12-07T03:32:31;95103.19;;;4.22;100.00
33155;BME280;19511;42.682;23.332;2022-12-07T03:35:07;95048.69;;;3.83;100.00
33155;BME280;19511;42.682;23.332;2022-12-07T03:37:41;95111.56;;;4.33;100.00
33155;BME280;19511;42.682;23.332;2022-12-07T03:42:42;95102.53;;;4.33;100.00
33155;BME280;19511;42.682;23.332;2022-12-07T03:45:08;95090.03;;;4.05;100.00
33155;BME280;19511;42.682;23.332;2022-12-07T03:47:53;95102.81;;;4.24;100.00
33155;BME280;19511;42.682;23.332;2022-12-07T03:50:31;95103.63;;;4.24;100.00
33155;BME280;19511;42.682;23.332;2022-12-07T03:53:11;95025.66;;;3.57;100.00
33155;BME280;19511;42.682;23.332;2022-12-07T03:55:42;95108.25;;;4.20;100.00
33155;BME280;19511;42.682;23.332;2022-12-07T03:58:12;95096.78;;;4.11;100.00
33155;BME280;19511;42.682;23.332;2022-12-07T04:00:41;95085.75;;;4.04;100.00
33155;BME280;19511;42.682;23.332;2022-12-07T04:03:06;95094.91;;;4.15;100.00
33155;BME280;19511;42.682;23.332;2022-12-07T04:05:32;95084.38;;;3.90;100.00
33155;BME280;19511;42.682;23.332;2022-12-07T04:07:57;95093.91;;;4.00;100.00
33155;BME280;19511;42.682;23.332;2022-12-07T04:10:23;95071.44;;;3.87;100.00
33155;BME280;19511;42.682;23.332;2022-12-07T04:12:48;94995.19;;;3.32;100.00
33155;BME280;19511;42.682;23.332;2022-12-07T04:15:14;95085.94;;;3.91;100.00
33155;BME280;19511;42.682;23.332;2022-12-07T04:17:39;95084.53;;;4.01;100.00
33155;BME280;19511;42.682;23.332;2022-12-07T04:20:06;95024.63;;;3.69;100.00
33155;BME280;19511;42.682;23.332;2022-12-07T04:22:32;94989.00;;;3.35;100.00
33155;BME280;19511;42.682;23.332;2022-12-07T04:24:57;95100.25;;;4.08;100.00
33155;BME280;19511;42.682;23.332;2022-12-07T04:27:23;95091.22;;;4.04;100.00
33155;BME280;19511;42.682;23.332;2022-12-07T04:29:48;95086.13;;;4.06;100.00
33155;BME280;19511;42.682;23.332;2022-12-07T04:32:14;95098.88;;;4.21;100.00
33155;BME280;19511;42.682;23.332;2022-12-07T04:34:40;95092.03;;;4.08;100.00
33155;BME280;19511;42.682;23.332;2022-12-07T04:37:05;95006.81;;;3.52;100.00
33155;BME280;19511;42.682;23.332;2022-12-07T04:39:32;95072.78;;;4.01;100.00
33155;BME280;19511;42.682;23.332;2022-12-07T04:41:58;95096.88;;;4.18;100.00
33155;BME280;19511;42.682;23.332;2022-12-07T04:44:25;95102.25;;;4.11;100.00
33155;BME280;19511;42.682;23.332;2022-12-07T04:46:51;95093.53;;;4.02;100.00
33155;BME280;19511;42.682;23.332;2022-12-07T04:49:17;95113.44;;;3.99;100.00
33155;BME280;19511;42.682;23.332;2022-12-07T04:51:44;95101.41;;;4.07;100.00
33155;BME280;19511;42.682;23.332;2022-12-07T04:54:09;95104.97;;;4.11;100.00
33155;BME280;19511;42.682;23.332;2022-12-07T04:56:35;95022.84;;;3.54;100.00
33155;BME280;19511;42.682;23.332;2022-12-07T04:59:02;95107.19;;;4.02;100.00
33155;BME280;19511;42.682;23.332;2022-12-07T05:01:28;95106.25;;;3.90;100.00
33155;BME280;19511;42.682;23.332;2022-12-07T05:03:53;95098.31;;;3.82;100.00
33155;BME280;19511;42.682;23.332;2022-12-07T05:06:19;95112.94;;;3.93;100.00
33155;BME280;19511;42.682;23.332;2022-12-07T05:08:45;95109.38;;;3.89;100.00
33155;BME280;19511;42.682;23.332;2022-12-07T05:11:11;95028.00;;;3.32;100.00
33155;BME280;19511;42.682;23.332;2022-12-07T05:13:57;95092.44;;;3.80;100.00
33155;BME280;19511;42.682;23.332;2022-12-07T05:16:23;95109.78;;;3.91;100.00
33155;BME280;19511;42.682;23.332;2022-12-07T05:18:48;95095.75;;;3.69;100.00
33155;BME280;19511;42.682;23.332;2022-12-07T05:21:14;95102.56;;;3.79;100.00
33155;BME280;19511;42.682;23.332;2022-12-07T05:23:39;95103.53;;;3.90;100.00
33155;BME280;19511;42.682;23.332;2022-12-07T05:26:05;95005.34;;;3.32;100.00
33155;BME280;19511;42.682;23.332;2022-12-07T05:28:30;95101.53;;;3.87;100.00
33155;BME280;19511;42.682;23.332;2022-12-07T05:30:56;95029.44;;;3.26;100.00
33155;BME280;19511;42.682;23.332;2022-12-07T05:33:21;95098.78;;;3.87;100.00
33155;BME280;19511;42.682;23.332;2022-12-07T05:35:48;95110.63;;;3.95;100.00
33155;BME280;19511;42.682;23.332;2022-12-07T05:38:13;95095.31;;;3.90;100.00
33155;BME280;19511;42.682;23.332;2022-12-07T05:40:38;95094.53;;;3.90;100.00
33155;BME280;19511;42.682;23.332;2022-12-07T05:43:04;95110.25;;;3.97;100.00
33155;BME280;19511;42.682;23.332;2022-12-07T05:45:29;95110.25;;;3.97;100.00
33155;BME280;19511;42.682;23.332;2022-12-07T05:47:55;95106.44;;;4.01;100.00
33155;BME280;19511;42.682;23.332;2022-12-07T05:50:20;95088.31;;;3.93;100.00
33155;BME280;19511;42.682;23.332;2022-12-07T05:52:46;95095.19;;;3.83;100.00
33155;BME280;19511;42.682;23.332;2022-12-07T05:55:11;95094.09;;;3.61;100.00
33155;BME280;19511;42.682;23.332;2022-12-07T05:57:37;94998.81;;;2.90;100.00
33155;BME280;19511;42.682;23.332;2022-12-07T06:00:04;95092.22;;;3.42;100.00
33155;BME280;19511;42.682;23.332;2022-12-07T06:02:29;95102.00;;;3.43;100.00
33155;BME280;19511;42.682;23.332;2022-12-07T06:04:55;95097.19;;;3.36;100.00
33155;BME280;19511;42.682;23.332;2022-12-07T06:07:21;95082.78;;;3.39;100.00
33155;BME280;19511;42.682;23.332;2022-12-07T06:09:46;95085.38;;;3.55;100.00
33155;BME280;19511;42.682;23.332;2022-12-07T06:12:14;95019.06;;;3.12;100.00
33155;BME280;19511;42.682;23.332;2022-12-07T06:14:58;95106.34;;;3.71;100.00
33155;BME280;19511;42.682;23.332;2022-12-07T06:17:24;95024.66;;;3.19;100.00
33155;BME280;19511;42.682;23.332;2022-12-07T06:19:50;94991.03;;;3.15;100.00
33155;BME280;19511;42.682;23.332;2022-12-07T06:22:15;95016.38;;;3.39;100.00
33155;BME280;19511;42.682;23.332;2022-12-07T06:24:41;95103.38;;;4.06;100.00
33155;BME280;19511;42.682;23.332;2022-12-07T06:27:07;95112.41;;;4.11;100.00
33155;BME280;19511;42.682;23.332;2022-12-07T06:29:32;95107.41;;;4.16;100.00
33155;BME280;19511;42.682;23.332;2022-12-07T06:31:58;95105.53;;;4.20;100.00
33155;BME280;19511;42.682;23.332;2022-12-07T06:34:24;95102.03;;;4.23;100.00
33155;BME280;19511;42.682;23.332;2022-12-07T06:36:50;95104.34;;;4.21;100.00
33155;BME280;19511;42.682;23.332;2022-12-07T06:39:19;95086.25;;;4.13;100.00
33155;BME280;19511;42.682;23.332;2022-12-07T06:41:45;95032.63;;;3.82;100.00
33155;BME280;19511;42.682;23.332;2022-12-07T06:44:10;95004.72;;;3.69;100.00
33155;BME280;19511;42.682;23.332;2022-12-07T06:46:36;95086.91;;;4.33;100.00
33155;BME280;19511;42.682;23.332;2022-12-07T06:49:02;95114.25;;;4.60;100.00
33155;BME280;19511;42.682;23.332;2022-12-07T06:51:27;95026.25;;;4.01;100.00
33155;BME280;19511;42.682;23.332;2022-12-07T06:53:53;95117.09;;;4.71;100.00
33155;BME280;19511;42.682;23.332;2022-12-07T06:56:18;95116.16;;;4.90;100.00
33155;BME280;19511;42.682;23.332;2022-12-07T06:58:48;95113.25;;;4.76;100.00
33155;BME280;19511;42.682;23.332;2022-12-07T07:01:16;95121.09;;;4.77;100.00
33155;BME280;19511;42.682;23.332;2022-12-07T07:03:44;95115.88;;;4.65;100.00
33155;BME280;19511;42.682;23.332;2022-12-07T07:06:10;95118.69;;;4.72;100.00
33155;BME280;19511;42.682;23.332;2022-12-07T07:08:36;95092.38;;;4.64;100.00
33155;BME280;19511;42.682;23.332;2022-12-07T07:11:03;95117.69;;;4.84;100.00
33155;BME280;19511;42.682;23.332;2022-12-07T07:13:29;95112.22;;;4.87;100.00
33155;BME280;19511;42.682;23.332;2022-12-07T07:15:54;95123.25;;;4.95;100.00
33155;BME280;19511;42.682;23.332;2022-12-07T07:18:20;95115.41;;;4.93;100.00
33155;BME280;19511;42.682;23.332;2022-12-07T07:20:46;95109.19;;;4.96;100.00
33155;BME280;19511;42.682;23.332;2022-12-07T07:23:11;95117.63;;;5.14;100.00
33155;BME280;19511;42.682;23.332;2022-12-07T07:25:37;95013.72;;;4.64;100.00
33155;BME280;19511;42.682;23.332;2022-12-07T07:28:03;95119.00;;;5.35;100.00
33155;BME280;19511;42.682;23.332;2022-12-07T07:30:28;95079.94;;;5.07;100.00
33155;BME280;19511;42.682;23.332;2022-12-07T07:32:58;95104.13;;;5.36;100.00
33155;BME280;19511;42.682;23.332;2022-12-07T07:35:28;95123.31;;;5.36;100.00
33155;BME280;19511;42.682;23.332;2022-12-07T07:37:55;95126.72;;;5.26;100.00
33155;BME280;19511;42.682;23.332;2022-12-07T07:40:21;95023.81;;;4.56;100.00
33155;BME280;19511;42.682;23.332;2022-12-07T07:42:53;95118.53;;;5.29;100.00
33155;BME280;19511;42.682;23.332;2022-12-07T07:45:19;95111.44;;;5.25;100.00
33155;BME280;19511;42.682;23.332;2022-12-07T07:47:45;95129.50;;;5.29;100.00
33155;BME280;19511;42.682;23.332;2022-12-07T07:50:11;95127.59;;;5.33;100.00
33155;BME280;19511;42.682;23.332;2022-12-07T07:52:36;95042.28;;;5.01;100.00
33155;BME280;19511;42.682;23.332;2022-12-07T07:55:02;95103.53;;;5.61;100.00
33155;BME280;19511;42.682;23.332;2022-12-07T07:57:28;95104.94;;;5.40;100.00
33155;BME280;19511;42.682;23.332;2022-12-07T07:59:53;95105.06;;;5.54;100.00
33155;BME280;19511;42.682;23.332;2022-12-07T08:02:19;95112.28;;;5.77;100.00
33155;BME280;19511;42.682;23.332;2022-12-07T08:04:45;95120.16;;;5.79;100.00
33155;BME280;19511;42.682;23.332;2022-12-07T08:07:14;95120.88;;;5.72;100.00
33155;BME280;19511;42.682;23.332;2022-12-07T08:09:39;95112.09;;;5.52;100.00
33155;BME280;19511;42.682;23.332;2022-12-07T08:12:05;95109.72;;;5.50;100.00
33155;BME280;19511;42.682;23.332;2022-12-07T08:14:31;95112.09;;;5.52;100.00
33155;BME280;19511;42.682;23.332;2022-12-07T08:16:56;95101.53;;;5.54;100.00
33155;BME280;19511;42.682;23.332;2022-12-07T08:19:22;95120.13;;;5.75;100.00
33155;BME280;19511;42.682;23.332;2022-12-07T08:21:48;95119.75;;;5.77;100.00
33155;BME280;19511;42.682;23.332;2022-12-07T08:24:13;95105.53;;;5.67;100.00
33155;BME280;19511;42.682;23.332;2022-12-07T08:26:39;95123.34;;;5.84;100.00
33155;BME280;19511;42.682;23.332;2022-12-07T08:29:05;95089.50;;;5.69;100.00
33155;BME280;19511;42.682;23.332;2022-12-07T08:31:30;95117.03;;;5.80;100.00
33155;BME280;19511;42.682;23.332;2022-12-07T08:33:56;95095.22;;;5.50;100.00
33155;BME280;19511;42.682;23.332;2022-12-07T08:36:22;95052.31;;;5.27;100.00
33155;BME280;19511;42.682;23.332;2022-12-07T08:38:48;95031.13;;;5.24;100.00
33155;BME280;19511;42.682;23.332;2022-12-07T08:41:14;95032.69;;;5.25;100.00
33155;BME280;19511;42.682;23.332;2022-12-07T08:43:40;95019.47;;;5.38;100.00
33155;BME280;19511;42.682;23.332;2022-12-07T08:48:36;95082.63;;;5.94;100.00
33155;BME280;19511;42.682;23.332;2022-12-07T08:51:04;95099.19;;;6.01;100.00
33155;BME280;19511;42.682;23.332;2022-12-07T08:53:30;95022.84;;;5.65;100.00
33155;BME280;19511;42.682;23.332;2022-12-07T08:55:57;95089.03;;;6.09;100.00
33155;BME280;19511;42.682;23.332;2022-12-07T08:58:23;95085.03;;;5.99;100.00
33155;BME280;19511;42.682;23.332;2022-12-07T09:00:49;95019.97;;;5.47;100.00
33155;BME280;19511;42.682;23.332;2022-12-07T09:03:14;95088.47;;;5.88;100.00
33155;BME280;19511;42.682;23.332;2022-12-07T09:05:39;95013.97;;;5.31;100.00
33155;BME280;19511;42.682;23.332;2022-12-07T09:08:05;94994.41;;;5.39;100.00
33155;BME280;19511;42.682;23.332;2022-12-07T09:10:31;95071.66;;;5.97;100.00
33155;BME280;19511;42.682;23.332;2022-12-07T09:13:00;95064.56;;;5.93;100.00
33155;BME280;19511;42.682;23.332;2022-12-07T09:15:27;95014.69;;;5.80;100.00
33155;BME280;19511;42.682;23.332;2022-12-07T10:05:15;94927.97;;;6.70;100.00
33155;BME280;19511;42.682;23.332;2022-12-07T10:07:44;95020.34;;;7.51;100.00
33155;BME280;19511;42.682;23.332;2022-12-07T10:10:25;95010.91;;;7.52;100.00
33155;BME280;19511;42.682;23.332;2022-12-07T10:12:56;94919.34;;;6.86;100.00
33155;BME280;19511;42.682;23.332;2022-12-07T10:15:22;94862.78;;;6.57;100.00
33155;BME280;19511;42.682;23.332;2022-12-07T10:17:52;94896.97;;;6.99;100.00
33155;BME280;19511;42.682;23.332;2022-12-07T10:20:25;94990.03;;;7.83;100.00
33155;BME280;19511;42.682;23.332;2022-12-07T10:23:04;94907.16;;;7.38;100.00
33155;BME280;19511;42.682;23.332;2022-12-07T10:25:35;94901.22;;;7.50;100.00
33155;BME280;19511;42.682;23.332;2022-12-07T10:28:10;94973.84;;;8.07;100.00
33155;BME280;19511;42.682;23.332;2022-12-07T10:30:56;94979.34;;;8.14;100.00
33155;BME280;19511;42.682;23.332;2022-12-07T10:33:38;94913.31;;;7.89;100.00
33155;BME280;19511;42.682;23.332;2022-12-07T10:38:49;94876.47;;;7.43;100.00
33155;BME280;19511;42.682;23.332;2022-12-07T10:41:15;94953.50;;;7.76;100.00
33155;BME280;19511;42.682;23.332;2022-12-07T10:43:51;94962.06;;;7.96;100.00
33155;BME280;19511;42.682;23.332;2022-12-07T10:46:45;94959.28;;;8.07;100.00
33155;BME280;19511;42.682;23.332;2022-12-07T10:49:35;94962.78;;;8.22;100.00
33155;BME280;19511;42.682;23.332;2022-12-07T10:52:30;94964.72;;;8.36;100.00
33155;BME280;19511;42.682;23.332;2022-12-07T11:00:25;94924.91;;;8.40;100.00
33155;BME280;19511;42.682;23.332;2022-12-07T11:17:27;94851.88;;;8.03;100.00
33155;BME280;19511;42.682;23.332;2022-12-07T11:20:20;94928.00;;;8.57;100.00
33155;BME280;19511;42.682;23.332;2022-12-07T11:37:14;94855.53;;;8.60;100.00
33155;BME280;19511;42.682;23.332;2022-12-07T11:42:37;94879.31;;;8.92;100.00
33155;BME280;19511;42.682;23.332;2022-12-07T11:45:25;94875.03;;;8.83;100.00
33155;BME280;19511;42.682;23.332;2022-12-07T11:53:10;94879.16;;;8.61;100.00
33155;BME280;19511;42.682;23.332;2022-12-07T11:55:49;94831.25;;;8.33;100.00
33155;BME280;19511;42.682;23.332;2022-12-07T11:58:42;94869.59;;;8.73;100.00
33155;BME280;19511;42.682;23.332;2022-12-07T12:04:01;94869.94;;;8.78;100.00
33155;BME280;19511;42.682;23.332;2022-12-07T12:06:30;94869.16;;;8.81;100.00
33155;BME280;19511;42.682;23.332;2022-12-07T12:09:36;94860.41;;;8.94;100.00
33155;BME280;19511;42.682;23.332;2022-12-07T12:25:35;94776.03;;;8.51;100.00
33155;BME280;19511;42.682;23.332;2022-12-07T12:28:03;94827.63;;;8.99;100.00
33155;BME280;19511;42.682;23.332;2022-12-07T12:30:32;94837.38;;;9.11;100.00
33155;BME280;19511;42.682;23.332;2022-12-07T12:33:13;94835.38;;;9.15;100.00
33155;BME280;19511;42.682;23.332;2022-12-07T12:35:40;94827.78;;;9.27;100.00
33155;BME280;19511;42.682;23.332;2022-12-07T12:38:32;94726.25;;;8.69;100.00
33155;BME280;19511;42.682;23.332;2022-12-07T12:41:00;94821.34;;;9.41;100.00
33155;BME280;19511;42.682;23.332;2022-12-07T12:43:51;94817.72;;;9.44;100.00
33155;BME280;19511;42.682;23.332;2022-12-07T12:51:47;94664.50;;;8.59;100.00
33155;BME280;19511;42.682;23.332;2022-12-07T12:54:21;94773.22;;;9.38;100.00
33155;BME280;19511;42.682;23.332;2022-12-07T13:01:56;94808.47;;;9.61;100.00
33155;BME280;19511;42.682;23.332;2022-12-07T13:04:25;94838.34;;;9.70;100.00
33155;BME280;19511;42.682;23.332;2022-12-07T13:06:52;94757.50;;;9.35;100.00
33155;BME280;19511;42.682;23.332;2022-12-07T13:09:25;94757.94;;;9.30;100.00
33155;BME280;19511;42.682;23.332;2022-12-07T13:12:00;94822.84;;;9.80;100.00
33155;BME280;19511;42.682;23.332;2022-12-07T13:14:56;94809.91;;;9.73;100.00
33155;BME280;19511;42.682;23.332;2022-12-07T13:28:07;94815.47;;;9.70;100.00
33155;BME280;19511;42.682;23.332;2022-12-07T13:30:47;94712.06;;;9.09;100.00
33155;BME280;19511;42.682;23.332;2022-12-07T13:33:17;94815.03;;;9.71;100.00
33155;BME280;19511;42.682;23.332;2022-12-07T13:35:43;94808.97;;;9.84;100.00
33155;BME280;19511;42.682;23.332;2022-12-07T13:38:23;94801.81;;;9.90;100.00
33155;BME280;19511;42.682;23.332;2022-12-07T13:41:03;94788.69;;;9.97;100.00
33155;BME280;19511;42.682;23.332;2022-12-07T13:43:29;94800.84;;;10.04;100.00
33155;BME280;19511;42.682;23.332;2022-12-07T13:45:58;94787.28;;;9.86;100.00
33155;BME280;19511;42.682;23.332;2022-12-07T13:48:42;94777.13;;;9.75;100.00
33155;BME280;19511;42.682;23.332;2022-12-07T13:51:20;94795.72;;;10.02;100.00
33155;BME280;19511;42.682;23.332;2022-12-07T13:53:48;94792.94;;;10.06;100.00
33155;BME280;19511;42.682;23.332;2022-12-07T13:56:15;94791.78;;;10.03;100.00
33155;BME280;19511;42.682;23.332;2022-12-07T13:58:41;94782.38;;;9.97;100.00
33155;BME280;19511;42.682;23.332;2022-12-07T14:01:07;94791.66;;;10.10;100.00
33155;BME280;19511;42.682;23.332;2022-12-07T14:03:34;94773.25;;;10.00;100.00
33155;BME280;19511;42.682;23.332;2022-12-07T14:08:42;94793.19;;;10.15;100.00
33155;BME280;19511;42.682;23.332;2022-12-07T14:11:14;94779.84;;;10.10;100.00
33155;BME280;19511;42.682;23.332;2022-12-07T14:16:35;94787.63;;;10.19;100.00
33155;BME280;19511;42.682;23.332;2022-12-07T14:19:06;94794.19;;;10.28;100.00
33155;BME280;19511;42.682;23.332;2022-12-07T14:22:06;94755.84;;;10.03;100.00
33155;BME280;19511;42.682;23.332;2022-12-07T14:24:41;94807.22;;;10.28;100.00
33155;BME280;19511;42.682;23.332;2022-12-07T14:27:17;94763.50;;;9.92;100.00
33155;BME280;19511;42.682;23.332;2022-12-07T14:29:43;94804.91;;;10.23;100.00
33155;BME280;19511;42.682;23.332;2022-12-07T14:32:19;94810.53;;;10.16;100.00
33155;BME280;19511;42.682;23.332;2022-12-07T14:35:03;94809.03;;;10.11;100.00
33155;BME280;19511;42.682;23.332;2022-12-07T14:37:33;94793.84;;;9.95;100.00
33155;BME280;19511;42.682;23.332;2022-12-07T14:39:59;94704.69;;;9.33;100.00
33155;BME280;19511;42.682;23.332;2022-12-07T14:42:29;94806.06;;;9.98;100.00
33155;BME280;19511;42.682;23.332;2022-12-07T14:44:56;94723.47;;;9.45;100.00
33155;BME280;19511;42.682;23.332;2022-12-07T14:47:23;94810.19;;;9.83;100.00
33155;BME280;19511;42.682;23.332;2022-12-07T14:49:49;94803.56;;;9.76;100.00
33155;BME280;19511;42.682;23.332;2022-12-07T14:52:28;94797.06;;;9.59;100.00
33155;BME280;19511;42.682;23.332;2022-12-07T14:54:55;94746.25;;;9.19;100.00
33155;BME280;19511;42.682;23.332;2022-12-07T14:57:20;94808.72;;;9.40;100.00
33155;BME280;19511;42.682;23.332;2022-12-07T14:59:46;94750.56;;;8.81;100.00
33155;BME280;19511;42.682;23.332;2022-12-07T15:02:13;94808.00;;;8.94;100.00
33155;BME280;19511;42.682;23.332;2022-12-07T15:04:39;94811.97;;;8.89;100.00
33155;BME280;19511;42.682;23.332;2022-12-07T15:07:10;94713.25;;;8.21;100.00
33155;BME280;19511;42.682;23.332;2022-12-07T15:09:38;94825.44;;;8.80;100.00
33155;BME280;19511;42.682;23.332;2022-12-07T15:12:03;94807.97;;;8.48;100.00
33155;BME280;19511;42.682;23.332;2022-12-07T15:14:29;94744.78;;;8.12;100.00
33155;BME280;19511;42.682;23.332;2022-12-07T15:16:54;94816.94;;;8.56;100.00
33155;BME280;19511;42.682;23.332;2022-12-07T15:19:22;94816.22;;;8.48;100.00
33155;BME280;19511;42.682;23.332;2022-12-07T15:21:49;94830.09;;;8.30;100.00
33155;BME280;19511;42.682;23.332;2022-12-07T15:24:14;94772.88;;;7.85;100.00
33155;BME280;19511;42.682;23.332;2022-12-07T15:26:40;94820.38;;;8.11;100.00
33155;BME280;19511;42.682;23.332;2022-12-07T15:29:06;94730.22;;;7.48;100.00
33155;BME280;19511;42.682;23.332;2022-12-07T15:31:32;94836.91;;;8.11;100.00
33155;BME280;19511;42.682;23.332;2022-12-07T15:33:58;94821.22;;;7.97;100.00
33155;BME280;19511;42.682;23.332;2022-12-07T15:36:26;94793.81;;;7.72;100.00
33155;BME280;19511;42.682;23.332;2022-12-07T15:38:52;94817.47;;;7.55;100.00
33155;BME280;19511;42.682;23.332;2022-12-07T15:41:18;94759.47;;;7.06;100.00
33155;BME280;19511;42.682;23.332;2022-12-07T15:43:44;94827.69;;;7.62;100.00